Tiempo atmosférico en la estación meteorológica de Cabacés, Tarragona (360 m.)



Fecha
DESCASC
Temp. máxima en grados centígrados (hora)
DESCASC
Temp. mínima en grados centígrados (hora)
DESCASC
Temp. media en grados centígrados
DESCASC
Racha de viento máxima en m/sg (hora)
DESCASC
Velocidad máxima media en intervalos de 10 minutos(hora)
DESCASC
Precipitaciones diarias en mm
DESCASC
Precipitaciones de 00:00 a 06:00 en mm
DESCASC
Precipitaciones de 06:00 a 12:00 en mm
DESCASC
Precipitaciones de 12:00 a 18:00 en mm
DESCASC
Precipitaciones de 18:00 a 24:00 en mm
DESCASC
18-01-2018 14.5 (16:10) 4 (07:30) 9.3 6.94 (14:20) 2.5 (14:20) 0 0 0 0 0
17-01-2018 13.9 (14:00) 6.5 (23:59) 10.2 18.06 (12:50) 6.94 (09:30) 0 0 0 0 0
16-01-2018 16.4 (15:50) 4.2 (08:50) 10.3 10.83 (15:30) 4.72 (17:00) 0 0 0 0 0
15-01-2018 9.8 (15:50) 2.7 (07:30) 6.3 6.94 (16:40) 2.5 (16:10) 0 0 0 0 0
14-01-2018 8.2 (15:10) 4.2 (00:00) 6.2 6.94 (07:40) 2.5 (07:10) 0.4 0.2 0.2 0 0
13-01-2018 10.8 (14:10) 0.8 (00:00) 5.8 9.72 (15:50) 3.33 (14:20) 0 0 0 0 0
12-01-2018 11.1 (14:20) 2.3 (00:00) 6.7 8.06 (14:40) 2.78 (14:40) 0 0 0 0 0
11-01-2018 10 (15:30) 4.3 (00:00) 7.2 11.39 (17:00) 4.17 (13:10) 0 0 0 0 0
10-01-2018 12.1 (14:40) 1.5 (00:00) 6.8 6.11 (14:50) 2.5 (15:40) 0 0 0 0 0
09-01-2018 11.3 (13:30) 0 (00:00) 5.7 5.83 (14:10) 2.5 (16:00) 0 0 0 0 0
08-01-2018 6.2 (13:20) 2.6 (00:00) 4.4 7.22 (11:50) 3.33 (14:20) 0 0 0 0 0
07-01-2018 9.3 (14:50) 3.3 (00:00) 6.3 10 (03:40) 3.33 (03:40) 7.2 7 0.2 0 0
06-01-2018 13.4 (14:50) 4.4 (00:00) 8.9 13.89 (21:20) 4.72 (21:20) 4 0 0 0.2 3.8
05-01-2018 17.3 (15:10) 6.3 (00:00) 11.8 7.78 (14:00) 3.33 (12:00) 0 0 0 0 0
04-01-2018 19.3 (14:50) 12.4 (09:10) 15.8 10.83 (14:00) 3.89 (12:10) 0 0 0 0 0
03-01-2018 19.2 (14:50) 10.4 (00:00) 14.8 12.5 (17:10) 5 (15:20) 0 0 0 0 0
02-01-2018 16.9 (16:30) 9.8 (00:00) 13.3 11.67 (15:20) 4.17 (04:30) 0 0 0 0 0
01-01-2018 14.2 (16:20) 4.9 (00:00) 9.5 12.78 (01:30) 5.56 (02:00) 0.4 0 0 0 0.4
31-12-2017 15.5 (13:30) 4.7 (00:00) 10.1 13.61 (22:40) 5 (22:40) 0 0 0 0 0
30-12-2017 19.2 (16:10) 7 (00:00) 13.1 10.56 (13:40) 3.61 (13:40) 0 0 0 0 0
29-12-2017 14.3 (16:40) 7.5 (00:00) 10.9 10 (04:10) 3.61 (04:10) 0.2 0 0.2 0 0
28-12-2017 10.5 (12:00) 4.6 (00:00) 7.5 8.61 (10:40) 3.61 (02:10) 0.6 0 0 0.6 0
27-12-2017 10.8 (14:10) 3.1 (00:00) 7 18.33 (14:30) 6.39 (14:40) 3.2 3.2 0 0 0
26-12-2017 8.1 (13:50) 0.5 (00:00) 4.3 6.11 (09:50) 2.5 (09:50) 0 0 0 0 0
25-12-2017 12.3 (15:40) -1.3 (-00:0) 5.5 2.78 (18:00) 1.39 (14:50) 0 0 0 0 0
24-12-2017 13.8 (15:10) -0.9 (-00:0) 6.5 3.06 (13:40) 1.39 (13:50) 0 0 0 0 0

Gráficas

Temp. máximas Temp. mínimas Temp. medias Precipitaciones Rachas de viento máximas Velocidades máximas media en intervalos de 10 minutos

Datos horarios

Fecha y hora oficial Temperatura (ºC) Velocidad del viento (km/h) Dirección del viento Racha (km/h) Dirección de racha Precipitación (mm) Presión (hPa) Tendencia (hPa) Humedad (%)
2018-01-22 23:00:00 11.8 5 Este 13 Sudeste 0 -- -- 73
2018-01-22 22:00:00 12.2 5 Sudeste 16 Sur 0 -- -- 71
2018-01-22 21:00:00 12.2 5 Sur 17 Sur 0 -- -- 70
2018-01-22 20:00:00 12.5 5 Sudeste 9 Sudeste 0 -- -- 67
2018-01-22 19:00:00 13.4 4 Nordeste 18 Oeste 0 -- -- 62
2018-01-22 18:00:00 14.9 6 Sur 23 Norte 0 -- -- 57
2018-01-22 17:00:00 16.9 10 Sur 27 Sur 0 -- -- 51
2018-01-22 16:00:00 18.1 10 Sur 27 Sudoeste 0 -- -- 48
2018-01-22 15:00:00 17.5 10 Oeste 28 Sudoeste 0 -- -- 51
2018-01-22 14:00:00 16.9 11 Sudoeste 24 Nordeste 0 -- -- 54
2018-01-22 13:00:00 15.9 8 Sur 29 Sudeste 0 -- -- 57
2018-01-22 12:00:00 15.1 7 Sudeste 18 Sudeste 0 -- -- 59
2018-01-22 11:00:00 13.1 6 Sur 18 Sudeste 0 -- -- 68
2018-01-22 10:00:00 10.3 6 Sudeste 28 Nordeste 0 -- -- 76
2018-01-22 09:00:00 10 12 Nordeste 26 Nordeste 0 -- -- 78
2018-01-22 08:00:00 9.8 8 Este 18 Nordeste 0 -- -- 80
2018-01-22 07:00:00 10 7 Este 18 Norte 0 -- -- 80
2018-01-22 06:00:00 10.4 7 Nordeste 22 Nordeste 0 -- -- 79
2018-01-22 05:00:00 10.3 6 Este 14 Nordeste 0 -- -- 80
2018-01-22 04:00:00 10.8 5 Sudeste 15 Sur 0 -- -- 79
2018-01-22 03:00:00 11.1 6 Sudeste 11 Sudeste 0 -- -- 79
2018-01-22 02:00:00 11.4 7 Sudeste 14 Este 0 -- -- 78
2018-01-22 01:00:00 11.4 5 Sudeste 14 Sur 0 -- -- 78
2018-01-22 00:00:00 11.4 5 Este 12 Nordeste 0 -- -- 78
2018-01-21 23:00:00 11.5 4 Este 9 Nordeste 0 -- -- 78
2018-01-21 22:00:00 12.4 4 Sudeste 18 Sur 0 -- -- 74
2018-01-21 21:00:00 13.1 6 Sur 21 Sudoeste 0 -- -- 73
2018-01-21 20:00:00 13.9 5 Sur 18 Sudoeste 0 -- -- 69
2018-01-21 19:00:00 15 8 Sur 24 Sudoeste 0 -- -- 66
2018-01-21 18:00:00 16.8 10 Sur 26 Sur 0 -- -- 61
2018-01-21 17:00:00 19.1 9 Sur 28 Sudoeste 0 -- -- 52
2018-01-21 16:00:00 20 10 Sur 34 Sudoeste 0 -- -- 50
2018-01-21 15:00:00 19.3 10 Sur 28 Sur 0 -- -- 53
2018-01-21 14:00:00 18.5 10 Sur 27 Sudoeste 0 -- -- 55
2018-01-21 13:00:00 16.6 11 Sudoeste 31 Oeste 0 -- -- 62
2018-01-21 12:00:00 14.2 9 Sur 29 Sudoeste 0 -- -- 70
2018-01-21 11:00:00 12.5 7 Sudeste 30 Nordeste 0 -- -- 74
2018-01-21 10:00:00 12.5 11 Sur 23 Sur 0 -- -- 73
2018-01-21 09:00:00 12.3 7 Sur 33 Sur 0 -- -- 74
2018-01-21 08:00:00 12.5 10 Sur 28 Sudoeste 0 -- -- 74
2018-01-21 07:00:00 12.4 9 Sur 29 Sudoeste 0 -- -- 73
2018-01-21 06:00:00 12.8 12 Sur 27 Sur 0 -- -- 72
2018-01-21 05:00:00 12.5 7 Sudoeste 19 Sur 0 -- -- 71
2018-01-21 04:00:00 12.8 6 Sudoeste 29 Sudoeste 0 -- -- 69
2018-01-21 03:00:00 13.1 12 Sur 30 Sudoeste 0 -- -- 70
2018-01-21 02:00:00 12.9 8 Sur 29 Sudeste 0 -- -- 69
2018-01-21 01:00:00 12.3 8 Sur 21 Sur 0 -- -- 69
2018-01-21 00:00:00 12.6 10 Sur 32 Sur 0 -- -- 66
2018-01-20 23:00:00 12.9 6 Sur 32 Sur 0 -- -- 67
2018-01-20 22:00:00 13.4 14 Sudoeste 30 Sudoeste 0 -- -- 64
2018-01-20 21:00:00 13 13 Sur 32 Sur 0 -- -- 65
2018-01-20 20:00:00 13 11 Sur 35 Sudoeste 0 -- -- 60
2018-01-20 19:00:00 13.4 15 Sur 38 Sudoeste 0 -- -- 54
2018-01-20 18:00:00 14.2 14 Sudoeste 36 Sur 0 -- -- 48
2018-01-20 17:00:00 15.4 14 Sudoeste 45 Sudoeste 0 -- -- 44
2018-01-20 16:00:00 15.8 15 Sudoeste 44 Sudoeste 0 -- -- 41
2018-01-20 15:00:00 15.8 10 Sur 29 Sudoeste 0 -- -- 41
2018-01-20 14:00:00 15 8 Sudoeste 36 Sudoeste 0 -- -- 42
2018-01-20 13:00:00 13.6 9 Sur 32 Sudoeste 0 -- -- 47
2018-01-20 12:00:00 11.5 8 Sur 22 Sur 0 -- -- 61
2018-01-20 11:00:00 9.5 6 Sudeste 20 Norte 0 -- -- 72
2018-01-20 10:00:00 6.9 5 Nordeste 17 Este 0 -- -- 81
2018-01-20 09:00:00 6.1 5 Este 14 Este 0 -- -- 84
2018-01-20 08:00:00 5.8 5 Este 12 Este 0 -- -- 85
2018-01-20 07:00:00 4.8 3 Nordeste 9 Nordeste 0 -- -- 87
2018-01-20 06:00:00 5.5 0 Calma 9 Nordeste 0 -- -- 82
2018-01-20 05:00:00 6.4 2 Nordeste 14 Nordeste 0 -- -- 78
2018-01-20 04:00:00 5.9 4 Este 12 Este 0 -- -- 82
2018-01-20 03:00:00 6.7 3 Nordeste 10 Este 0 -- -- 78
2018-01-20 02:00:00 7.2 5 Este 13 Nordeste 0 -- -- 77
2018-01-20 01:00:00 7.5 5 Este 15 Nordeste 0 -- -- 77
2018-01-20 00:00:00 7.5 4 Este 13 Sur 0 -- -- 75
2018-01-19 23:00:00 8.4 5 Sudeste 18 Sudoeste 0 -- -- 69
2018-01-19 22:00:00 9.4 8 Sur 19 Sudoeste 0 -- -- 64
2018-01-19 21:00:00 10.4 5 Este 22 Nordeste 0 -- -- 60
2018-01-19 20:00:00 11.5 9 Sudeste 21 Este 0 -- -- 60
2018-01-19 19:00:00 12.4 5 Sudeste 18 Sudeste 0 -- -- 57
2018-01-19 18:00:00 14.1 8 Sudeste 19 Sur 0 -- -- 50
2018-01-19 17:00:00 15.6 9 Sur 24 Oeste 0 -- -- 49
2018-01-19 16:00:00 16.4 7 Sur 26 Oeste 0 -- -- 52
2018-01-19 15:00:00 15.5 8 Oeste 25 Sudoeste 0 -- -- 56
2018-01-19 14:00:00 14.1 8 Sur 27 Oeste 0 -- -- 60
2018-01-19 13:00:00 12.9 5 Oeste 15 Sudoeste 0 -- -- 65
2018-01-19 12:00:00 10.6 4 Nordeste 18 Nordeste 0 -- -- 73
2018-01-19 11:00:00 8 5 Este 12 Nordeste 0 -- -- 81
2018-01-19 10:00:00 7.2 3 Norte 10 Nordeste 0 -- -- 84
2018-01-19 09:00:00 6.8 3 Este 12 Este 0 -- -- 85
2018-01-19 08:00:00 6.6 5 Este 15 Este 0 -- -- 85
2018-01-19 07:00:00 6.4 5 Este 16 Nordeste 0 -- -- 83
2018-01-19 06:00:00 6.7 6 Este 17 Este 0 -- -- 80
2018-01-19 05:00:00 6.7 6 Este 15 Este 0 -- -- 78
2018-01-19 04:00:00 6.6 4 Nordeste 14 Nordeste 0 -- -- 76
2018-01-19 03:00:00 5.6 0 Calma 12 Norte 0 -- -- 77
2018-01-19 02:00:00 6.9 6 Norte 14 Norte 0 -- -- 73
2018-01-19 01:00:00 6.5 4 Norte 9 Norte 0 -- -- 74
2018-01-19 00:00:00 6.1 2 Norte 11 Noroeste 0 -- -- 75
2018-01-18 23:00:00 7.2 3 Este 14 Este 0 -- -- 69
2018-01-18 22:00:00 5.5 0 Calma 4 Noroeste 0 -- -- 77
2018-01-18 21:00:00 6.6 3 Nordeste 6 Este 0 -- -- 73
2018-01-18 20:00:00 8.4 0 Calma 9 Este 0 -- -- 65
2018-01-18 19:00:00 9.5 3 Nordeste 10 Nordeste 0 -- -- 62
2018-01-18 18:00:00 11.7 3 Norte 10 Este 0 -- -- 55
2018-01-18 17:00:00 14.3 3 Sur 12 Norte 0 -- -- 47
2018-01-18 16:00:00 14.4 5 Norte 18 Norte 0 -- -- 46
2018-01-18 15:00:00 14.2 5 Este 25 Nordeste 0 -- -- 49
2018-01-18 14:00:00 13.1 6 Sudoeste 20 Nordeste 0 -- -- 52
2018-01-18 13:00:00 12 8 Norte 20 Norte 0 -- -- 55
2018-01-18 12:00:00 10.6 6 Norte 18 Norte 0 -- -- 60
2018-01-18 11:00:00 8.6 5 Norte 15 Norte 0 -- -- 68
2018-01-18 10:00:00 5.9 4 Nordeste 12 Nordeste 0 -- -- 76
2018-01-18 09:00:00 5.5 6 Nordeste 14 Nordeste 0 -- -- 77
2018-01-18 08:00:00 4.3 3 Este 10 Nordeste 0 -- -- 86
2018-01-18 07:00:00 4.6 4 Nordeste 9 Nordeste 0 -- -- 85
2018-01-18 06:00:00 4.8 4 Nordeste 8 Este 0 -- -- 85
2018-01-18 05:00:00 5 3 Nordeste 13 Nordeste 0 -- -- 81
2018-01-18 04:00:00 5.3 5 Nordeste 10 Este 0 -- -- 82
2018-01-18 03:00:00 4.7 3 Este 9 Este 0 -- -- 85
2018-01-18 02:00:00 4.8 2 Este 8 Este 0 -- -- 83
2018-01-18 01:00:00 6.4 4 Sudeste 16 Oeste 0 -- -- 77
2018-01-18 00:00:00 6.5 3 Norte 10 Norte 0 -- -- 76
2018-01-17 23:00:00 7.2 4 Noroeste 12 Sur 0 -- -- 74
2018-01-17 22:00:00 7.5 3 Este 13 Sur 0 -- -- 73
2018-01-17 21:00:00 8.5 5 Sudoeste 19 Sudoeste 0 -- -- 70
2018-01-17 20:00:00 8.8 3 Noroeste 12 Sur 0 -- -- 68
2018-01-17 19:00:00 9.8 4 Sur 18 Sudoeste 0 -- -- 61
2018-01-17 18:00:00 11 7 Sudoeste 29 Sudoeste 0 -- -- 57
2018-01-17 17:00:00 12.9 8 Sur 31 Sur 0 -- -- 50
2018-01-17 16:00:00 13.8 9 Sur 32 Sudoeste 0 -- -- 47
2018-01-17 15:00:00 13.2 14 Sudoeste 41 Sudoeste 0 -- -- 50
2018-01-17 14:00:00 13.9 14 Sudoeste 41 Sur 0 -- -- 50
2018-01-17 13:00:00 12.9 19 Sur 65 Sudoeste 0 -- -- 52
2018-01-17 12:00:00 13 15 Sur 54 Oeste 0 -- -- 51
2018-01-17 11:00:00 12.1 18 Sur 45 Sudoeste 0 -- -- 57
2018-01-17 10:00:00 11.1 14 Sur 59 Sudoeste 0 -- -- 63
2018-01-17 09:00:00 10.9 17 Sur 48 Sudoeste 0 -- -- 65
2018-01-17 08:00:00 11.2 10 Sur 39 Sur 0 -- -- 68
2018-01-17 07:00:00 11.4 12 Sur 36 Oeste 0 -- -- 67
2018-01-17 06:00:00 10.8 12 Sur 34 Sudoeste 0 -- -- 73
2018-01-17 05:00:00 11 12 Sur 34 Sur 0 -- -- 74
2018-01-17 04:00:00 11.1 10 Sur 27 Sudoeste 0 -- -- 73
2018-01-17 03:00:00 10.9 10 Sur 27 Sur 0 -- -- 74
2018-01-17 02:00:00 10.7 5 Sur 25 Sur 0 -- -- 74
2018-01-17 01:00:00 11 8 Sur 23 Sudoeste 0 -- -- 73
2018-01-17 00:00:00 10.7 8 Sur 31 Sudoeste 0 -- -- 76
2018-01-16 23:00:00 11.3 11 Sudoeste 31 Sudoeste 0 -- -- 73
2018-01-16 22:00:00 11.7 10 Sudoeste 28 Sur 0 -- -- 71
2018-01-16 21:00:00 12.4 10 Sur 26 Sudoeste 0 -- -- 69
2018-01-16 20:00:00 12.7 6 Sur 20 Sur 0 -- -- 67
2018-01-16 19:00:00 13.5 5 Norte 32 Sudoeste 0 -- -- 63
2018-01-16 18:00:00 14.3 14 Sur 36 Sudoeste 0 -- -- 61
2018-01-16 17:00:00 15.6 17 Sur 34 Sudoeste 0 -- -- 57
2018-01-16 16:00:00 16.3 12 Sur 39 Sur 0 -- -- 54
2018-01-16 15:00:00 16.2 13 Sudoeste 36 Sudoeste 0 -- -- 54
2018-01-16 14:00:00 15.1 10 Sur 24 Oeste 0 -- -- 56
2018-01-16 13:00:00 14 9 Oeste 31 Oeste 0 -- -- 57
2018-01-16 12:00:00 12.1 12 Oeste 28 Sudoeste 0 -- -- 61
2018-01-16 11:00:00 9.9 10 Noroeste 23 Oeste 0 -- -- 67
2018-01-16 10:00:00 7.2 7 Sudoeste 23 Sur 0 -- -- 73
2018-01-16 09:00:00 4.3 4 Sudeste 10 Sur 0 -- -- 81
2018-01-16 08:00:00 5.1 4 Sur 10 Sur 0 -- -- 75
2018-01-16 07:00:00 6 3 Sur 13 Sur 0 -- -- 70
2018-01-16 06:00:00 7 7 Nordeste 23 Norte 0 -- -- 66
2018-01-16 05:00:00 7 5 Este 24 Norte 0 -- -- 65
2018-01-16 04:00:00 6.9 7 Este 18 Este 0 -- -- 67
2018-01-16 03:00:00 6.8 7 Nordeste 18 Nordeste 0 -- -- 68
2018-01-16 02:00:00 7.1 6 Este 18 Nordeste 0 -- -- 67
2018-01-16 01:00:00 6.6 6 Nordeste 15 Nordeste 0 -- -- 70
2018-01-16 00:00:00 7.2 3 Sudeste 12 Nordeste 0 -- -- 67
2018-01-15 23:00:00 6.6 7 Este 17 Este 0 -- -- 70
2018-01-15 22:00:00 6.1 3 Sudeste 9 Este 0 -- -- 75
2018-01-15 21:00:00 7.4 4 Este 13 Nordeste 0 -- -- 72
2018-01-15 20:00:00 7 3 Nordeste 8 Nordeste 0 -- -- 76
2018-01-15 19:00:00 7.8 4 Este 16 Este 0 -- -- 73
2018-01-15 18:00:00 8 5 Sudeste 15 Nordeste 0 -- -- 73
2018-01-15 17:00:00 9.1 7 Nordeste 25 Norte 0 -- -- 69
2018-01-15 16:00:00 9.7 8 Nordeste 23 Norte 0 -- -- 65
2018-01-15 15:00:00 9.2 6 Sur 20 Oeste 0 -- -- 67
2018-01-15 14:00:00 8.9 5 Sudeste 21 Oeste 0 -- -- 67
2018-01-15 13:00:00 8.6 6 Noroeste 22 Sudoeste 0 -- -- 69
2018-01-15 12:00:00 6.5 5 Sudoeste 15 Norte 0 -- -- 78
2018-01-15 11:00:00 5.3 3 Sudeste 17 Norte 0 -- -- 81
2018-01-15 10:00:00 3.7 4 Este 11 Este 0 -- -- 88
2018-01-15 09:00:00 3.5 3 Sur 11 Sudoeste 0 -- -- 88
2018-01-15 08:00:00 3.2 0 Calma 6 Norte 0 -- -- 91
2018-01-15 07:00:00 3.1 3 Este 9 Sur 0 -- -- 89
2018-01-15 06:00:00 3.5 5 Este 10 Sudeste 0 -- -- 90
2018-01-15 05:00:00 3.9 3 Sudeste 11 Sudeste 0 -- -- 87
2018-01-15 04:00:00 4.3 5 Este 11 Este 0 -- -- 86
2018-01-15 03:00:00 5 3 Noroeste 6 Oeste 0 -- -- 84
2018-01-15 02:00:00 5.4 3 Sudoeste 10 Sur 0 -- -- 83
2018-01-15 01:00:00 6 3 Oeste 13 Oeste 0 -- -- 80
2018-01-15 00:00:00 6.3 3 Sudoeste 8 Sur 0 -- -- 79
2018-01-14 23:00:00 6.2 4 Este 9 Este 0 -- -- 80
2018-01-14 22:00:00 6.5 2 Este 8 Sudeste 0 -- -- 79
2018-01-14 21:00:00 6.5 3 Este 6 Este 0 -- -- 79
2018-01-14 20:00:00 6.6 3 Sur 11 Sudoeste 0 -- -- 78
2018-01-14 19:00:00 7 5 Sur 17 Sur 0 -- -- 76
2018-01-14 18:00:00 7.2 3 Sudeste 12 Sur 0 -- -- 76
2018-01-14 17:00:00 7.6 5 Sur 20 Sudoeste 0 -- -- 75
2018-01-14 16:00:00 8 5 Sur 17 Sudoeste 0 -- -- 73
2018-01-14 15:00:00 8.1 5 Sur 18 Sudoeste 0 -- -- 73
2018-01-14 14:00:00 7.2 7 Sudoeste 19 Sudoeste 0 -- -- 75
2018-01-14 13:00:00 6.5 6 Sur 21 Sur 0 -- -- 79
2018-01-14 12:00:00 6.1 8 Sur 22 Sur 0 -- -- 83
2018-01-14 11:00:00 5.3 3 Sur 10 Sudoeste 0 -- -- 88
2018-01-14 10:00:00 4.8 5 Sur 14 Sur 0 -- -- 90
2018-01-14 09:00:00 4.5 4 Sur 18 Sur 0 -- -- 90
2018-01-14 08:00:00 4.3 8 Sur 25 Sudoeste 0 -- -- 91
2018-01-14 07:00:00 4.3 8 Sur 18 Sudoeste 0.2 -- -- 91
2018-01-14 06:00:00 4.5 6 Sur 19 Sudoeste 0 -- -- 90
2018-01-14 05:00:00 4.8 6 Noroeste 19 Sur 0 -- -- 91
2018-01-14 04:00:00 5.1 5 Este 16 Norte 0 -- -- 91
2018-01-14 03:00:00 5.3 4 Este 14 Nordeste 0 -- -- 89
2018-01-14 02:00:00 5.2 0 Calma 8 Este 0 -- -- 91
2018-01-14 01:00:00 5.4 4 Norte 12 Nordeste 0.2 -- -- 89
2018-01-14 00:00:00 5.8 4 Noroeste 11 Sudoeste 0 -- -- 88
2018-01-13 23:00:00 7.2 4 Sur 19 Oeste 0 -- -- 82
2018-01-13 22:00:00 8.7 4 Norte 25 Oeste 0 -- -- 67
2018-01-13 21:00:00 8.4 6 Norte 21 Sur 0 -- -- 72
2018-01-13 20:00:00 8.5 9 Sudeste 28 Sudeste 0 -- -- 76
2018-01-13 19:00:00 8.8 10 Sudeste 27 Sudeste 0 -- -- 76
2018-01-13 18:00:00 9.4 12 Sudeste 27 Sudeste 0 -- -- 72
2018-01-13 17:00:00 10.3 9 Sudoeste 28 Sudeste 0 -- -- 69
2018-01-13 16:00:00 10.1 10 Sur 35 Sudeste 0 -- -- 71
2018-01-13 15:00:00 10.3 9 Nordeste 32 Este 0 -- -- 72
2018-01-13 14:00:00 10.7 9 Sudeste 27 Este 0 -- -- 72
2018-01-13 13:00:00 10.2 6 Este 22 Sudoeste 0 -- -- 73
2018-01-13 12:00:00 9.5 6 Sudeste 24 Sudeste 0 -- -- 75
2018-01-13 11:00:00 9 10 Sudeste 22 Este 0 -- -- 73
2018-01-13 10:00:00 7.8 7 Sudeste 21 Sudoeste 0 -- -- 75
2018-01-13 09:00:00 6 5 Sudoeste 17 Sudeste 0 -- -- 86
2018-01-13 08:00:00 1.4 0 Calma 9 Sur 0 -- -- 96
2018-01-13 07:00:00 0.9 0 Calma 6 Sudeste 0 -- -- 96
2018-01-13 06:00:00 0.9 0 Calma 5 Sudeste 0 -- -- 96
2018-01-13 05:00:00 0.9 0 Calma 4 Sudeste 0 -- -- 96
2018-01-13 04:00:00 0.8 0 Calma 3 Sudeste 0 -- -- 95
2018-01-13 03:00:00 1.3 0 Calma 3 Sur 0 -- -- 94
2018-01-13 02:00:00 1.6 0 Calma 7 Sur 0 -- -- 94
2018-01-13 01:00:00 2 0 Calma 3 Noroeste 0 -- -- 94
2018-01-13 00:00:00 2.3 0 Calma 4 Sur 0 -- -- 92
2018-01-12 23:00:00 2.7 0 Calma 4 Este 0 -- -- 92
2018-01-12 22:00:00 3.3 0 Calma 5 Sur 0 -- -- 90
2018-01-12 21:00:00 4 0 Calma 5 Sudoeste 0 -- -- 88
2018-01-12 20:00:00 4.8 0 Calma 3 Sudeste 0 -- -- 86
2018-01-12 19:00:00 6 0 Calma 3 Sudoeste 0 -- -- 81
2018-01-12 18:00:00 8.1 0 Calma 6 Sudeste 0 -- -- 75
2018-01-12 17:00:00 9.6 3 Norte 13 Nordeste 0 -- -- 69
2018-01-12 16:00:00 10.2 3 Sur 20 Sudoeste 0 -- -- 68
2018-01-12 15:00:00 11.1 8 Sur 29 Sudoeste 0 -- -- 63
2018-01-12 14:00:00 10.1 6 Sur 18 Nordeste 0 -- -- 66
2018-01-12 13:00:00 9.2 4 Sudoeste 26 Nordeste 0 -- -- 69
2018-01-12 12:00:00 8.8 4 Norte 23 Noroeste 0 -- -- 69
2018-01-12 11:00:00 6.3 6 Nordeste 21 Nordeste 0 -- -- 80
2018-01-12 10:00:00 4.7 4 Nordeste 9 Nordeste 0 -- -- 87
2018-01-12 09:00:00 4.2 4 Este 16 Norte 0 -- -- 88
2018-01-12 08:00:00 3.8 4 Este 12 Este 0 -- -- 89
2018-01-12 07:00:00 3.7 6 Sudoeste 17 Oeste 0 -- -- 89
2018-01-12 06:00:00 3.3 2 Norte 10 Sudeste 0 -- -- 88
2018-01-12 05:00:00 3.3 6 Nordeste 17 Sur 0 -- -- 88
2018-01-12 04:00:00 3.9 5 Oeste 12 Oeste 0 -- -- 87
2018-01-12 03:00:00 4.6 3 Oeste 9 Norte 0 -- -- 84
2018-01-12 02:00:00 4.9 2 Noroeste 12 Sur 0 -- -- 82
2018-01-12 01:00:00 5.2 3 Sur 13 Sudeste 0 -- -- 81
2018-01-12 00:00:00 5.5 4 Sudeste 17 Norte 0 -- -- 79
2018-01-11 23:00:00 5.6 6 Sudeste 17 Este 0 -- -- 77
2018-01-11 22:00:00 5.6 4 Sudeste 26 Nordeste 0 -- -- 74
2018-01-11 21:00:00 5.7 9 Nordeste 28 Norte 0 -- -- 72
2018-01-11 20:00:00 6.1 5 Este 16 Este 0 -- -- 69
2018-01-11 19:00:00 6.8 7 Sudeste 30 Nordeste 0 -- -- 67
2018-01-11 18:00:00 7.9 9 Este 24 Sudeste 0 -- -- 61
2018-01-11 17:00:00 9.9 13 Sudeste 41 Sur 0 -- -- 54
2018-01-11 16:00:00 9.7 11 Sudeste 32 Sudeste 0 -- -- 55
2018-01-11 15:00:00 9.2 12 Sur 31 Sur 0 -- -- 55
2018-01-11 14:00:00 9.3 12 Sudoeste 35 Sudoeste 0 -- -- 57
2018-01-11 13:00:00 8.5 13 Sudoeste 37 Sudoeste 0 -- -- 59
2018-01-11 12:00:00 7.2 11 Sur 27 Sudoeste 0 -- -- 63
2018-01-11 11:00:00 5.7 9 Sur 22 Sudoeste 0 -- -- 69
2018-01-11 10:00:00 4.4 5 Este 21 Sur 0 -- -- 74
2018-01-11 09:00:00 4.7 9 Sur 25 Este 0 -- -- 72
2018-01-11 08:00:00 4.9 9 Nordeste 22 Nordeste 0 -- -- 71
2018-01-11 07:00:00 4.8 12 Nordeste 27 Norte 0 -- -- 73
2018-01-11 06:00:00 5 6 Sur 19 Sur 0 -- -- 73
2018-01-11 05:00:00 5.5 9 Sur 24 Sur 0 -- -- 73
2018-01-11 04:00:00 6.1 10 Sudoeste 29 Sur 0 -- -- 70
2018-01-11 03:00:00 6.5 9 Sur 25 Sudoeste 0 -- -- 70
2018-01-11 02:00:00 6.9 8 Sudeste 21 Sudoeste 0 -- -- 69
2018-01-11 01:00:00 7.5 9 Sur 23 Sudoeste 0 -- -- 71
2018-01-11 00:00:00 8.1 7 Sur 17 Sudoeste 0 -- -- 71
2018-01-10 23:00:00 8.8 3 Este 11 Nordeste 0 -- -- 69
2018-01-10 22:00:00 8.9 5 Este 10 Sudeste 0 -- -- 68
2018-01-10 21:00:00 8.7 3 Este 9 Este 0 -- -- 71
2018-01-10 20:00:00 8.5 4 Este 9 Nordeste 0 -- -- 72
2018-01-10 19:00:00 8.5 3 Este 10 Este 0 -- -- 73
2018-01-10 18:00:00 9.5 4 Nordeste 14 Sudoeste 0 -- -- 69
2018-01-10 17:00:00 11 8 Sur 21 Sudoeste 0 -- -- 63
2018-01-10 16:00:00 11.9 8 Sur 22 Sur 0 -- -- 61
2018-01-10 15:00:00 11.7 9 Sur 22 Sur 0 -- -- 60
2018-01-10 14:00:00 11.1 8 Sudoeste 21 Sur 0 -- -- 62
2018-01-10 13:00:00 10.9 4 Sur 15 Nordeste 0 -- -- 62
2018-01-10 12:00:00 9.5 6 Este 19 Norte 0 -- -- 65
2018-01-10 11:00:00 6.5 4 Norte 13 Noroeste 0 -- -- 76
2018-01-10 10:00:00 4.5 3 Este 13 Este 0 -- -- 79
2018-01-10 09:00:00 1.5 2 Este 6 Norte 0 -- -- 92
2018-01-10 08:00:00 1.7 0 Calma 3 Sudeste 0 -- -- 92
2018-01-10 07:00:00 1.7 0 Calma 3 Este 0 -- -- 90
2018-01-10 06:00:00 2.1 0 Calma 2 Norte 0 -- -- 90
2018-01-10 05:00:00 2.3 0 Calma 3 Sur 0 -- -- 88
2018-01-10 04:00:00 2.6 0 Calma 2 Noroeste 0 -- -- 87
2018-01-10 03:00:00 3.3 0 Calma 5 Noroeste 0 -- -- 84
2018-01-10 02:00:00 3.8 0 Calma 4 Norte 0 -- -- 82
2018-01-10 01:00:00 3.4 0 Calma 5 Noroeste 0 -- -- 86
2018-01-10 00:00:00 3.3 0 Calma 2 Oeste 0 -- -- 85
2018-01-09 23:00:00 3.5 0 Calma 3 Noroeste 0 -- -- 83
2018-01-09 22:00:00 3.8 0 Calma 4 Sudeste 0 -- -- 79
2018-01-09 21:00:00 3.7 0 Calma 2 Sur 0 -- -- 80
2018-01-09 20:00:00 4.1 0 Calma 4 Sudeste 0 -- -- 76
2018-01-09 19:00:00 4.9 0 Calma 4 Sur 0 -- -- 71
2018-01-09 18:00:00 7.2 0 Calma 8 Noroeste 0 -- -- 62
2018-01-09 17:00:00 8.5 4 Oeste 18 Noroeste 0 -- -- 57
2018-01-09 16:00:00 10.1 9 Noroeste 19 Noroeste 0 -- -- 52
2018-01-09 15:00:00 10.6 5 Nordeste 21 Nordeste 0 -- -- 53
2018-01-09 14:00:00 10.9 5 Este 13 Oeste 0 -- -- 52
2018-01-09 13:00:00 10.6 4 Oeste 12 Norte 0 -- -- 59
2018-01-09 12:00:00 8.2 2 Sur 8 Noroeste 0 -- -- 65
2018-01-09 11:00:00 4.5 3 Oeste 15 Norte 0 -- -- 78
2018-01-09 10:00:00 0.7 0 Calma 5 Sudeste 0 -- -- 88
2018-01-09 09:00:00 2 3 Este 11 Nordeste 0 -- -- 80
2018-01-09 08:00:00 0.4 0 Calma 10 Norte 0 -- -- 87
2018-01-09 07:00:00 0.7 2 Nordeste 8 Norte 0 -- -- 92
2018-01-09 06:00:00 0 3 Noroeste 8 Nordeste 0 -- -- 90
2018-01-09 05:00:00 2.3 3 Este 10 Nordeste 0 -- -- 81
2018-01-09 04:00:00 3 5 Nordeste 11 Nordeste 0 -- -- 83
2018-01-09 03:00:00 3.6 3 Este 15 Sudeste 0 -- -- 82
2018-01-09 02:00:00 3.9 5 Este 15 Este 0 -- -- 80
2018-01-09 01:00:00 4.2 6 Este 17 Nordeste 0 -- -- 80
2018-01-09 00:00:00 3.9 3 Este 13 Este 0 -- -- 87
2018-01-08 23:00:00 3.9 4 Este 11 Este 0 -- -- 87
2018-01-08 22:00:00 4.1 4 Este 14 Este 0 -- -- 82
2018-01-08 21:00:00 3.8 6 Sudeste 19 Nordeste 0 -- -- 85
2018-01-08 20:00:00 4.1 4 Sudeste 15 Este 0 -- -- 86
2018-01-08 19:00:00 4.2 5 Norte 12 Norte 0 -- -- 90
2018-01-08 18:00:00 4.8 4 Oeste 10 Oeste 0 -- -- 89
2018-01-08 17:00:00 5.1 4 Sudoeste 14 Oeste 0 -- -- 87
2018-01-08 16:00:00 5.5 5 Este 18 Nordeste 0 -- -- 87
2018-01-08 15:00:00 5.6 7 Norte 24 Norte 0 -- -- 87
2018-01-08 14:00:00 5.9 6 Norte 24 Oeste 0 -- -- 86
2018-01-08 13:00:00 6.1 7 Norte 19 Norte 0 -- -- 86
2018-01-08 12:00:00 5.9 8 Norte 26 Norte 0 -- -- 88
2018-01-08 11:00:00 5.2 3 Sur 15 Nordeste 0 -- -- 93
2018-01-08 10:00:00 4.3 3 Sudeste 13 Nordeste 0 -- -- 97
2018-01-08 09:00:00 3.9 2 Sur 5 Sudoeste 0 -- -- 96
2018-01-08 08:00:00 4 3 Oeste 8 Oeste 0 -- -- 96
2018-01-08 07:00:00 4 6 Oeste 12 Sudoeste 0 -- -- 95
2018-01-08 06:00:00 3.3 2 Sudeste 6 Sudeste 0 -- -- 95
2018-01-08 05:00:00 2.8 2 Sur 11 Noroeste 0 -- -- 94
2018-01-08 04:00:00 2.8 2 Sudoeste 5 Oeste 0 -- -- 95
2018-01-08 03:00:00 3.6 0 Calma 4 Noroeste -- -- -- 94
2018-01-08 02:00:00 4.5 0 Calma 8 Sudeste 0 -- -- 92
2018-01-08 01:00:00 5.4 2 Sudoeste 14 Norte 0 -- -- 92
2018-01-08 00:00:00 5.2 0 Calma 4 Noroeste 0 -- -- 95
2018-01-07 23:00:00 5.2 0 Calma 8 Oeste 0 -- -- 95
2018-01-07 22:00:00 5.1 2 Oeste 7 Oeste 0 -- -- 95
2018-01-07 21:00:00 4.1 3 Nordeste 10 Norte 0 -- -- 94
2018-01-07 20:00:00 4.5 0 Calma 4 Sudeste 0 -- -- 90
2018-01-07 19:00:00 5.6 0 Calma 4 Nordeste 0 -- -- 87
2018-01-07 18:00:00 7.5 0 Calma 4 Nordeste 0 -- -- 85
2018-01-07 17:00:00 8.4 0 Calma 5 Nordeste 0 -- -- 83
2018-01-07 16:00:00 9 2 Sudeste 8 Sur 0 -- -- 78
2018-01-07 15:00:00 9.2 4 Oeste 12 Sur 0 -- -- 78
2018-01-07 14:00:00 8.9 5 Sur 22 Sudeste 0 -- -- 76
2018-01-07 13:00:00 8.7 3 Noroeste 21 Oeste 0 -- -- 81
2018-01-07 12:00:00 8 5 Oeste 16 Oeste 0 -- -- 91
2018-01-07 11:00:00 5.2 4 Oeste 13 Noroeste 0 -- -- 97
2018-01-07 10:00:00 3.7 0 Calma 4 Sudeste 0 -- -- 96
2018-01-07 09:00:00 3.3 2 Sudeste 5 Sudoeste 0 -- -- 95
2018-01-07 08:00:00 3.5 2 Sudoeste 6 Sudoeste 0 -- -- 95
2018-01-07 07:00:00 3.7 3 Sur 7 Noroeste 0.2 -- -- 94
2018-01-07 06:00:00 4.5 4 Sudeste 14 Sudeste 0 -- -- 93
2018-01-07 05:00:00 6.9 3 Sudoeste 22 Oeste 0.6 -- -- 88
2018-01-07 04:00:00 9.1 7 Noroeste 36 Este 0.2 -- -- 91
2018-01-07 03:00:00 7.5 9 Norte 24 Nordeste 3.6 -- -- 96
2018-01-07 02:00:00 5.3 4 Noroeste 16 Nordeste 2.6 -- -- 94
2018-01-07 01:00:00 5.9 3 Sur 16 Noroeste 0 -- -- 92
2018-01-07 00:00:00 6.2 4 Norte 20 Noroeste 0.8 -- -- 90
2018-01-06 23:00:00 8.4 5 Noroeste 40 Oeste 2.6 -- -- 84
2018-01-06 22:00:00 12.9 12 Sudeste 50 Nordeste 0.4 -- -- 75
2018-01-06 21:00:00 13.1 13 Nordeste 42 Este 0 -- -- 74
2018-01-06 20:00:00 12.6 11 Nordeste 45 Este 0 -- -- 76
2018-01-06 19:00:00 12.5 8 Norte 29 Sudeste 0 -- -- 74
2018-01-06 18:00:00 11.9 7 Norte 19 Noroeste 0 -- -- 73
2018-01-06 17:00:00 12 5 Norte 21 Nordeste 0.2 -- -- 77
2018-01-06 16:00:00 12.8 5 Norte 22 Sudeste 0 -- -- 78
2018-01-06 15:00:00 13.4 5 Sur 25 Sur 0 -- -- 70
2018-01-06 14:00:00 13 10 Sudeste 26 Sur 0 -- -- 70
2018-01-06 13:00:00 12.2 8 Sudeste 25 Sudeste 0 -- -- 76
2018-01-06 12:00:00 12 8 Sudeste 27 Sur 0 -- -- 75
2018-01-06 11:00:00 11.5 9 Noroeste 27 Sudoeste 0 -- -- 76
2018-01-06 10:00:00 11.4 5 Sudoeste 22 Sur 0 -- -- 74
2018-01-06 09:00:00 11 6 Norte 27 Sudeste 0 -- -- 72
2018-01-06 08:00:00 10.5 11 Sudeste 22 Sudeste 0 -- -- 72
2018-01-06 07:00:00 7 6 Sudeste 18 Sudeste 0 -- -- 91
2018-01-06 06:00:00 5.2 0 Calma 10 Sudeste 0 -- -- 84
2018-01-06 05:00:00 5.5 0 Calma 10 Norte 0 -- -- 83
2018-01-06 04:00:00 5.5 0 Calma 4 Sur 0 -- -- 81
2018-01-06 03:00:00 5.4 0 Calma 5 Sudeste 0 -- -- 82
2018-01-06 02:00:00 5.8 0 Calma 4 Sudeste 0 -- -- 82
2018-01-06 01:00:00 5.6 0 Calma 3 Noroeste 0 -- -- 81
2018-01-06 00:00:00 6.3 0 Calma 2 Sudoeste 0 -- -- 79
2018-01-05 23:00:00 6.6 0 Calma 5 Sudoeste 0 -- -- 77
2018-01-05 22:00:00 7.8 0 Calma 5 Sudeste 0 -- -- 73
2018-01-05 21:00:00 8.4 0 Calma 5 Sudeste 0 -- -- 70
2018-01-05 20:00:00 9.5 0 Calma 2 Este 0 -- -- 66
2018-01-05 19:00:00 11 0 Calma 2 Sudoeste 0 -- -- 61
2018-01-05 18:00:00 14.1 2 Norte 9 Noroeste 0 -- -- 52
2018-01-05 17:00:00 17.1 4 Noroeste 17 Sudoeste 0 -- -- 44
2018-01-05 16:00:00 17.1 7 Oeste 26 Nordeste 0 -- -- 44
2018-01-05 15:00:00 17.1 9 Sudoeste 28 Sudoeste 0 -- -- 44
2018-01-05 14:00:00 17.1 9 Sudoeste 28 Oeste 0 -- -- 43
2018-01-05 13:00:00 16.4 9 Sudoeste 25 Sudoeste 0 -- -- 47
2018-01-05 12:00:00 15.2 12 Sur 26 Sur 0 -- -- 51
2018-01-05 11:00:00 12.8 6 Sur 17 Este 0 -- -- 61
2018-01-05 10:00:00 10.8 6 Sudeste 13 Sudeste 0 -- -- 69
2018-01-05 09:00:00 10.1 6 Nordeste 12 Nordeste 0 -- -- 71
2018-01-05 08:00:00 9.5 2 Nordeste 8 Este 0 -- -- 73
2018-01-05 07:00:00 10.1 3 Este 16 Este 0 -- -- 70
2018-01-05 06:00:00 11.1 6 Este 13 Este 0 -- -- 67
2018-01-05 05:00:00 11.3 6 Nordeste 17 Nordeste 0 -- -- 67
2018-01-05 04:00:00 11.3 5 Este 12 Este 0 -- -- 67
2018-01-05 03:00:00 11.7 4 Este 18 Norte 0 -- -- 65
2018-01-05 02:00:00 12.6 5 Este 17 Nordeste 0 -- -- 62
2018-01-05 01:00:00 12.8 8 Este 22 Nordeste 0 -- -- 61
2018-01-05 00:00:00 12.6 6 Este 16 Sur 0 -- -- 61
2018-01-04 23:00:00 13.8 5 Sur 29 Sur 0 -- -- 57
2018-01-04 22:00:00 14.3 10 Sur 33 Sudoeste 0 -- -- 55
2018-01-04 21:00:00 14.6 9 Sur 20 Sudoeste 0 -- -- 55
2018-01-04 20:00:00 13.9 3 Sudeste 14 Sudeste 0 -- -- 58
2018-01-04 19:00:00 15.7 6 Sudeste 26 Sudoeste 0 -- -- 53
2018-01-04 18:00:00 16.9 9 Sur 22 Sur 0 -- -- 51
2018-01-04 17:00:00 18.5 7 Oeste 28 Sudoeste 0 -- -- 50
2018-01-04 16:00:00 19.2 9 Sur 26 Sudoeste 0 -- -- 50
2018-01-04 15:00:00 19 14 Sudoeste 33 Sudoeste 0 -- -- 51
2018-01-04 14:00:00 18.8 13 Sur 39 Sudoeste 0 -- -- 52
2018-01-04 13:00:00 18.1 12 Sudoeste 31 Sudoeste 0 -- -- 55
2018-01-04 12:00:00 17.4 11 Sur 32 Sudoeste 0 -- -- 58
2018-01-04 11:00:00 15.4 5 Sudeste 17 Este 0 -- -- 70
2018-01-04 10:00:00 12.7 6 Sudeste 15 Sudeste 0 -- -- 79
2018-01-04 09:00:00 12.6 5 Sudeste 19 Oeste 0 -- -- 79
2018-01-04 08:00:00 13.4 4 Sudeste 17 Sur 0 -- -- 77
2018-01-04 07:00:00 14 10 Sur 31 Sudoeste 0 -- -- 75
2018-01-04 06:00:00 13.8 9 Sur 27 Sur 0 -- -- 75
2018-01-04 05:00:00 13 6 Sur 17 Sudoeste 0 -- -- 78
2018-01-04 04:00:00 13.5 5 Sur 20 Sudoeste 0 -- -- 76
2018-01-04 03:00:00 13.3 5 Oeste 15 Sudoeste 0 -- -- 77
2018-01-04 02:00:00 13.7 8 Sudoeste 20 Oeste 0 -- -- 76
2018-01-04 01:00:00 14.2 6 Sur 21 Sudoeste 0 -- -- 74
2018-01-04 00:00:00 14.4 7 Sur 37 Sudoeste 0 -- -- 73
2018-01-03 23:00:00 14.9 9 Sur 30 Sudoeste 0 -- -- 73
2018-01-03 22:00:00 15.4 12 Sur 37 Sudoeste 0 -- -- 73
2018-01-03 21:00:00 16 10 Sudoeste 28 Sur 0 -- -- 71
2018-01-03 20:00:00 16.3 9 Sur 29 Sudoeste 0 -- -- 69
2018-01-03 19:00:00 16.6 13 Sudoeste 34 Sur 0 -- -- 67
2018-01-03 18:00:00 17.3 12 Sudoeste 45 Oeste 0 -- -- 63
2018-01-03 17:00:00 18.5 12 Sur 39 Sudoeste 0 -- -- 58
2018-01-03 16:00:00 18.9 14 Sudoeste 41 Sudoeste 0 -- -- 57
2018-01-03 15:00:00 19.2 12 Sudoeste 39 Oeste 0 -- -- 57
2018-01-03 14:00:00 18.9 15 Sudoeste 30 Sudoeste 0 -- -- 57
2018-01-03 13:00:00 18.3 10 Sudoeste 33 Oeste 0 -- -- 60
2018-01-03 12:00:00 16.7 10 Sudoeste 26 Sudoeste 0 -- -- 65
2018-01-03 11:00:00 13.4 7 Nordeste 21 Nordeste 0 -- -- 76
2018-01-03 10:00:00 12.7 6 Este 21 Nordeste 0 -- -- 78
2018-01-03 09:00:00 12.4 5 Este 22 Norte 0 -- -- 78
2018-01-03 08:00:00 12.5 9 Nordeste 22 Norte 0 -- -- 77
2018-01-03 07:00:00 12.4 6 Este 23 Sudoeste 0 -- -- 77
2018-01-03 06:00:00 12.4 6 Sudeste 27 Norte 0 -- -- 77
2018-01-03 05:00:00 12.7 10 Este 23 Nordeste 0 -- -- 75
2018-01-03 04:00:00 12.2 8 Sudeste 18 Este 0 -- -- 77
2018-01-03 03:00:00 11.7 6 Sudeste 12 Nordeste 0 -- -- 76
2018-01-03 02:00:00 10.7 3 Norte 12 Nordeste 0 -- -- 79
2018-01-03 01:00:00 10.5 0 Calma 8 Este 0 -- -- 79
2018-01-03 00:00:00 12.2 3 Este 18 Sudoeste 0 -- -- 72
2018-01-02 23:00:00 12.7 6 Sur 25 Sudoeste 0 -- -- 71
2018-01-02 22:00:00 13.1 10 Sur 20 Sur 0 -- -- 68
2018-01-02 21:00:00 13.1 6 Sudeste 17 Sur 0 -- -- 67
2018-01-02 20:00:00 13.2 6 Sudeste 21 Sudeste 0 -- -- 66
2018-01-02 19:00:00 13.5 6 Sudeste 21 Sudoeste 0 -- -- 64
2018-01-02 18:00:00 14.6 7 Sur 32 Sudoeste 0 -- -- 60
2018-01-02 17:00:00 16.4 11 Sur 30 Sudoeste 0 -- -- 54
2018-01-02 16:00:00 16.5 15 Sudoeste 42 Sudoeste 0 -- -- 54
2018-01-02 15:00:00 15.9 13 Sur 38 Sudoeste 0 -- -- 54
2018-01-02 14:00:00 15.6 10 Sudoeste 25 Oeste 0 -- -- 55
2018-01-02 13:00:00 14 10 Sudoeste 27 Sur 0 -- -- 60
2018-01-02 12:00:00 12.6 14 Sur 36 Sur 0 -- -- 66
2018-01-02 11:00:00 11.7 9 Sur 34 Sudoeste 0 -- -- 72
2018-01-02 10:00:00 9.9 8 Sudeste 22 Sudeste 0 -- -- 81
2018-01-02 09:00:00 9.9 7 Sur 25 Sur 0 -- -- 81
2018-01-02 08:00:00 10.6 10 Sur 27 Sudoeste 0 -- -- 79
2018-01-02 07:00:00 10.8 10 Sur 32 Sur 0 -- -- 72
2018-01-02 06:00:00 10.5 10 Sur 24 Sudoeste 0 -- -- 70
2018-01-02 05:00:00 10.6 9 Sur 39 Sur 0 -- -- 69
2018-01-02 04:00:00 11 11 Sur 25 Sudoeste 0 -- -- 67
2018-01-02 03:00:00 10.9 7 Sudeste 19 Sudeste 0 -- -- 63
2018-01-02 02:00:00 11.2 9 Sudeste 24 Norte 0 -- -- 63
2018-01-02 01:00:00 10.8 7 Este 28 Nordeste 0 -- -- 75
2018-01-02 00:00:00 10.3 9 Sudeste 30 Sur 0.4 -- -- 86
2018-01-01 23:00:00 12.2 14 Sur 31 Sudoeste 0 -- -- 67
2018-01-01 22:00:00 12.7 13 Sudoeste 32 Sur 0 -- -- 59
2018-01-01 21:00:00 12.8 11 Sur 29 Sudoeste 0 -- -- 57
2018-01-01 20:00:00 12.7 6 Sur 18 Sur 0 -- -- 50
2018-01-01 19:00:00 13 6 Oeste 23 Sur 0 -- -- 48
2018-01-01 18:00:00 13.2 9 Oeste 31 Sur 0 -- -- 46
2018-01-01 17:00:00 14.2 9 Oeste 26 Sudoeste 0 -- -- 41
2018-01-01 16:00:00 13.8 8 Sudoeste 23 Sur 0 -- -- 41
2018-01-01 15:00:00 13.7 8 Sur 37 Sudoeste 0 -- -- 40
2018-01-01 14:00:00 13.1 9 Sudoeste 27 Sudoeste 0 -- -- 40
2018-01-01 13:00:00 12.7 8 Sudeste 32 Nordeste 0 -- -- 44
2018-01-01 12:00:00 10.8 9 Sur 21 Sudoeste 0 -- -- 52
2018-01-01 11:00:00 8.4 9 Sudeste 19 Sudeste 0 -- -- 59
2018-01-01 10:00:00 5.7 5 Este 15 Sudeste 0 -- -- 66
2018-01-01 09:00:00 5.6 4 Sur 19 Sudoeste 0 -- -- 65
2018-01-01 08:00:00 5.4 5 Sur 24 Oeste 0 -- -- 66
2018-01-01 07:00:00 5 2 Sur 14 Nordeste 0 -- -- 72
2018-01-01 06:00:00 5.8 5 Sudeste 23 Sudoeste 0 -- -- 72
2018-01-01 05:00:00 6.7 10 Sudoeste 33 Sur 0 -- -- 71
2018-01-01 04:00:00 7.7 12 Sudoeste 36 Sur 0 -- -- 63
2018-01-01 03:00:00 8.5 10 Sur 46 Sur 0 -- -- 57
2018-01-01 02:00:00 8.1 20 Sudoeste 46 Sudoeste 0 -- -- 62
2018-01-01 01:00:00 8.7 15 Sur 42 Sur 0 -- -- 60
2018-01-01 00:00:00 9.3 10 Sur 33 Este 0 -- -- 58
2017-12-31 23:00:00 10.5 12 Sur 49 Sur 0 -- -- 63
2017-12-31 22:00:00 12.4 9 Oeste 31 Sudoeste 0 -- -- 63
2017-12-31 21:00:00 12 7 Sudeste 18 Nordeste 0 -- -- 63
2017-12-31 20:00:00 12.2 7 Nordeste 17 Nordeste 0 -- -- 63
2017-12-31 19:00:00 12.3 6 Este 29 Nordeste 0 -- -- 62
2017-12-31 18:00:00 12.1 9 Norte 23 Norte 0 -- -- 63
2017-12-31 17:00:00 12.8 6 Nordeste 30 Nordeste 0 -- -- 61
2017-12-31 16:00:00 13.1 6 Nordeste 24 Oeste 0 -- -- 59
2017-12-31 15:00:00 13.9 6 Norte 19 Norte 0 -- -- 59
2017-12-31 14:00:00 15.1 5 Norte 24 Nordeste 0 -- -- 59
2017-12-31 13:00:00 14.9 6 Oeste 16 Sudoeste 0 -- -- 63
2017-12-31 12:00:00 11.3 4 Sudeste 9 Sur 0 -- -- 79
2017-12-31 11:00:00 7.5 0 Calma 4 Sudoeste 0 -- -- 91
2017-12-31 10:00:00 5.9 0 Calma 4 Noroeste 0 -- -- 93
2017-12-31 09:00:00 5.4 0 Calma 3 Oeste 0 -- -- 92
2017-12-31 08:00:00 5.6 0 Calma 3 Nordeste 0 -- -- 94
2017-12-31 07:00:00 4.7 0 Calma 4 Noroeste 0 -- -- 91
2017-12-31 06:00:00 5.4 0 Calma 4 Nordeste 0 -- -- 88
2017-12-31 05:00:00 6.3 2 Este 6 Noroeste 0 -- -- 89
2017-12-31 04:00:00 7.1 2 Oeste 5 Nordeste 0 -- -- 85
2017-12-31 03:00:00 7.4 0 Calma 4 Noroeste 0 -- -- 85
2017-12-31 02:00:00 8.7 0 Calma 9 Este 0 -- -- 76
2017-12-31 01:00:00 10.3 2 Noroeste 10 Este 0 -- -- 71